Hovedside
METAR-TAF:

METAR-TAF

Lufthavner :

Helsingborg, Sverige

Ängelholm-Helsingborg lufthavn

breddegrad: 56-17-46N, lengdegrad: 012-50-50E, høyde over havet: 21 m

Gjeldene værobservasjon

Denne rapporten ble laget for 11 minutter siden, klokken 08:20 UTC
Vind 8 kt fra Øst-sørøst
Temperatur 0°C
Luftfuktighet 86%
Trykk 1012 hPa
Sikt 10 km eller mer

METAR: ESTA 220820Z AUTO 12008KT 9999 OVC017/// 00/M02 Q1012

Tid: 09:31 (08:31 UTC)

Varsel

Denne rapporten ble laget for 12 timer og 26 minutter siden, klokken 20:05 UTC
Varsel gyldig fra 21. klokken 21 UTC til 21. klokken 24 UTC
Vind 3 kt fra skiftende retning
Sikt: 8000 m
Brutte skyer i en høyde av 1000 ft
Midlertidig
fra 21. klokken 21 UTC til 21. klokken 24 UTC
Sikt: 4000 m
Brutte skyer i en høyde av 300 ft
dis

TAF: ESTA 212005Z 2121/2124 VRB03KT 8000 BKN010 TEMPO 2121/2124 4000 BR BKN003

Værobservasjoner og værvarsel for over 4000 flyplasser (METAR- og TAF-rapporter).

Tilgjengelige stasjoner er representert av de røde og gule prikkene på kartet.

Hold musepekeren over prikken for å se navnet på stasjonen.

Klikk så for å se værobservasjoner og -varsler.

For å forandre kartet kan du klikke på den grønne knappen med svart kryss for å zoome inn, på den grønne knappen med strek for å zoome ut, eller på de grønne pilene for å se tilstøtende kart.


METAR-TAF: